createdAt,value
2019-01-27T00:00:52.455Z,21.70
2019-01-27T00:03:19.787Z,20.87
2019-01-27T00:05:47.134Z,13.57
2019-01-27T00:08:14.635Z,18.70
2019-01-27T00:10:42.064Z,19.63
2019-01-27T00:13:09.372Z,24.53
2019-01-27T00:15:36.811Z,19.33
2019-01-27T00:18:04.226Z,20.47
2019-01-27T00:20:31.719Z,19.97
2019-01-27T00:22:59.007Z,19.73
2019-01-27T00:25:26.220Z,19.10
2019-01-27T00:27:53.475Z,19.30
2019-01-27T00:30:21.299Z,19.90
2019-01-27T00:32:48.715Z,19.10
2019-01-27T00:35:16.155Z,18.27
2019-01-27T00:37:43.645Z,19.07
2019-01-27T00:40:11.651Z,19.87
2019-01-27T00:42:38.977Z,21.27
2019-01-27T00:45:08.345Z,21.13
2019-01-27T00:47:35.869Z,18.43
2019-01-27T00:50:05.022Z,17.20
2019-01-27T00:52:32.381Z,21.97
2019-01-27T00:54:59.730Z,18.93
2019-01-27T00:57:27.071Z,17.87
2019-01-27T00:59:54.516Z,18.83
2019-01-27T01:02:21.850Z,20.83
2019-01-27T01:04:49.159Z,20.03
2019-01-27T01:07:16.468Z,16.70
2019-01-27T01:09:43.725Z,19.33
2019-01-27T01:12:11.008Z,20.50
2019-01-27T01:14:38.317Z,22.87
2019-01-27T01:17:05.687Z,19.77
2019-01-27T01:19:33.053Z,22.57
2019-01-27T01:22:00.423Z,20.40
2019-01-27T01:24:27.891Z,19.90
2019-01-27T01:26:55.424Z,21.60
2019-01-27T01:29:22.655Z,22.03
2019-01-27T01:31:50.012Z,19.40
2019-01-27T01:34:17.478Z,23.40
2019-01-27T01:36:44.704Z,23.03
2019-01-27T01:39:11.962Z,21.50
2019-01-27T01:41:39.307Z,20.77
2019-01-27T01:44:06.555Z,24.17
2019-01-27T01:46:33.800Z,20.47
2019-01-27T01:49:01.150Z,22.27
2019-01-27T01:51:28.362Z,22.13
2019-01-27T01:53:55.671Z,22.70
2019-01-27T01:56:23.036Z,18.27
2019-01-27T01:58:50.395Z,21.33
2019-01-27T02:01:17.978Z,14.70
2019-01-27T02:03:45.284Z,18.43
2019-01-27T02:06:12.622Z,24.47
2019-01-27T02:08:39.859Z,24.57
2019-01-27T02:11:07.174Z,24.43
2019-01-27T02:13:34.389Z,18.90
2019-01-27T02:16:06.123Z,24.30
2019-01-27T02:18:33.801Z,24.33
2019-01-27T02:21:01.499Z,23.87
2019-01-27T02:23:28.836Z,20.83
2019-01-27T02:25:56.249Z,21.93
2019-01-27T02:28:23.568Z,24.27
2019-01-27T02:30:50.835Z,23.33
2019-01-27T02:33:18.170Z,25.10
2019-01-27T02:35:45.536Z,20.33
2019-01-27T02:38:12.934Z,17.37
2019-01-27T02:40:40.301Z,23.53
2019-01-27T02:43:07.622Z,27.33
2019-01-27T02:45:34.979Z,23.43
2019-01-27T02:48:02.274Z,18.70
2019-01-27T02:50:29.615Z,19.63
2019-01-27T02:52:56.835Z,23.90
2019-01-27T02:55:24.044Z,23.70
2019-01-27T02:57:51.383Z,23.17
2019-01-27T03:00:18.765Z,24.40
2019-01-27T03:02:46.110Z,18.63
2019-01-27T03:05:28.961Z,22.20
2019-01-27T03:07:56.235Z,18.83
2019-01-27T03:10:23.528Z,23.00
2019-01-27T03:12:50.782Z,25.90
2019-01-27T03:15:18.386Z,25.87
2019-01-27T03:17:45.773Z,23.73
2019-01-27T03:20:13.096Z,16.90
2019-01-27T03:22:40.356Z,25.20
2019-01-27T03:25:09.154Z,24.80
2019-01-27T03:27:36.405Z,24.47
2019-01-27T03:30:06.672Z,20.87
2019-01-27T03:32:34.026Z,21.27
2019-01-27T03:35:01.320Z,22.90
2019-01-27T03:37:28.656Z,24.57
2019-01-27T03:39:55.958Z,28.67
2019-01-27T03:42:23.279Z,24.47
2019-01-27T03:44:50.505Z,26.53
2019-01-27T03:47:17.837Z,23.53
2019-01-27T03:49:45.160Z,25.33
2019-01-27T03:52:12.521Z,27.03
2019-01-27T03:54:39.832Z,26.57
2019-01-27T03:57:07.129Z,24.00
2019-01-27T03:59:34.469Z,26.30
2019-01-27T04:02:01.678Z,28.17
2019-01-27T04:04:29.009Z,28.53
2019-01-27T04:06:56.333Z,30.67
2019-01-27T04:09:23.651Z,27.53
2019-01-27T04:11:51.008Z,21.50
2019-01-27T04:14:18.243Z,25.07
2019-01-27T04:16:45.562Z,20.13
2019-01-27T04:19:12.784Z,24.23
2019-01-27T04:21:40.135Z,24.93
2019-01-27T04:24:07.348Z,25.53
2019-01-27T04:26:34.700Z,24.17
2019-01-27T04:29:02.724Z,24.87
2019-01-27T04:31:30.062Z,27.00
2019-01-27T04:33:57.417Z,28.13
2019-01-27T04:36:24.743Z,30.30
2019-01-27T04:38:51.993Z,26.60
2019-01-27T04:41:19.180Z,26.87
2019-01-27T04:43:46.416Z,26.67
2019-01-27T04:46:13.619Z,26.37
2019-01-27T04:48:40.861Z,28.70
2019-01-27T04:51:08.278Z,26.67
2019-01-27T04:53:35.710Z,28.87
2019-01-27T04:56:03.190Z,28.80
2019-01-27T04:58:30.651Z,31.70
2019-01-27T05:00:57.854Z,35.63
2019-01-27T05:03:50.917Z,24.10
2019-01-27T05:06:18.223Z,32.27
2019-01-27T05:08:45.527Z,33.53
2019-01-27T05:11:12.790Z,31.83
2019-01-27T05:13:40.087Z,32.50
2019-01-27T05:16:07.387Z,34.17
2019-01-27T05:18:34.621Z,30.33
2019-01-27T05:21:02.010Z,31.97
2019-01-27T05:23:29.343Z,35.77
2019-01-27T05:25:56.552Z,39.17
2019-01-27T05:28:23.905Z,38.03
2019-01-27T05:30:51.181Z,36.77
2019-01-27T05:33:18.521Z,37.43
2019-01-27T05:35:45.759Z,40.53
2019-01-27T05:38:12.967Z,41.43
2019-01-27T05:40:40.171Z,44.30
2019-01-27T05:43:07.402Z,47.57
2019-01-27T05:45:34.644Z,43.87
2019-01-27T05:48:02.043Z,48.77
2019-01-27T05:50:29.379Z,39.07
2019-01-27T05:52:56.707Z,55.33
2019-01-27T05:55:24.028Z,45.23
2019-01-27T05:57:51.379Z,63.07
2019-01-27T06:00:26.135Z,44.33
2019-01-27T06:02:53.358Z,56.30
2019-01-27T06:05:20.644Z,55.50
2019-01-27T06:07:47.912Z,33.23
2019-01-27T06:10:15.143Z,42.83
2019-01-27T06:12:42.440Z,55.87
2019-01-27T06:15:10.985Z,39.27
2019-01-27T06:17:38.556Z,58.57
2019-01-27T06:20:07.415Z,62.53
2019-01-27T06:22:34.697Z,64.17
2019-01-27T06:25:02.016Z,62.17
2019-01-27T06:27:29.335Z,69.80
2019-01-27T06:29:56.668Z,68.47
2019-01-27T06:32:41.575Z,64.17
2019-01-27T06:35:08.928Z,71.73
2019-01-27T06:37:36.264Z,66.20
2019-01-27T06:40:04.194Z,69.17
2019-01-27T06:42:31.383Z,73.67
2019-01-27T06:44:58.632Z,58.13
2019-01-27T06:47:25.873Z,71.93
2019-01-27T06:49:53.171Z,70.97
2019-01-27T06:52:20.525Z,53.33
2019-01-27T06:54:47.839Z,77.40
2019-01-27T06:57:15.166Z,71.90
2019-01-27T07:00:08.172Z,61.27
2019-01-27T07:02:46.352Z,69.63
2019-01-27T07:05:33.461Z,64.93
2019-01-27T07:08:29.468Z,61.50
2019-01-27T07:11:31.554Z,64.03
2019-01-27T07:14:17.275Z,71.37
2019-01-27T07:17:19.419Z,76.53
2019-01-27T07:20:21.066Z,70.13
2019-01-27T07:23:00.890Z,63.83
2019-01-27T07:26:03.038Z,71.30
2019-01-27T07:28:50.027Z,72.83
2019-01-27T07:31:42.729Z,69.67
2019-01-27T07:34:49.292Z,63.70
2019-01-27T07:37:35.192Z,54.97
2019-01-27T07:40:23.206Z,69.87
2019-01-27T07:42:58.104Z,55.10
2019-01-27T07:45:33.108Z,69.47
2019-01-27T07:48:20.087Z,63.63
2019-01-27T07:50:57.293Z,69.40
2019-01-27T07:53:51.104Z,54.10
2019-01-27T07:56:38.000Z,69.57
2019-01-27T07:59:40.129Z,53.67
2019-01-27T08:02:17.763Z,55.93
2019-01-27T08:05:04.123Z,77.67
2019-01-27T08:07:46.043Z,58.80
2019-01-27T08:10:40.844Z,55.60
2019-01-27T08:13:26.206Z,63.30
2019-01-27T08:16:27.987Z,66.40
2019-01-27T08:19:09.874Z,60.77
2019-01-27T08:22:05.743Z,68.17
2019-01-27T08:25:04.714Z,64.27
2019-01-27T08:27:50.528Z,62.80
2019-01-27T08:30:43.200Z,57.67
2019-01-27T08:33:28.111Z,60.13
2019-01-27T08:36:00.411Z,59.47
2019-01-27T08:38:33.228Z,56.97
2019-01-27T08:41:16.753Z,66.13
2019-01-27T08:44:02.720Z,63.00
2019-01-27T08:46:34.160Z,40.63
2019-01-27T08:49:01.514Z,63.23
2019-01-27T08:51:28.971Z,60.57
2019-01-27T08:53:56.289Z,64.27
2019-01-27T08:56:23.475Z,64.63
2019-01-27T08:58:50.623Z,62.20
2019-01-27T09:01:43.752Z,56.83
2019-01-27T09:04:16.504Z,57.47
2019-01-27T09:06:50.275Z,62.03
2019-01-27T09:09:35.724Z,63.57
2019-01-27T09:12:22.270Z,48.03
2019-01-27T09:15:02.274Z,52.83
2019-01-27T09:17:55.622Z,56.33
2019-01-27T09:20:38.264Z,51.60
2019-01-27T09:23:23.627Z,49.50
2019-01-27T09:26:29.183Z,48.53
2019-01-27T09:29:16.144Z,47.80
2019-01-27T09:31:51.538Z,29.00
2019-01-27T09:34:41.276Z,36.33
2019-01-27T09:37:46.642Z,37.70
2019-01-27T09:40:31.929Z,38.57
2019-01-27T09:43:25.013Z,35.93
2019-01-27T09:46:27.115Z,49.93
2019-01-27T09:49:12.348Z,42.93
2019-01-27T09:52:02.236Z,50.60
2019-01-27T09:55:04.352Z,44.40
2019-01-27T09:57:39.700Z,40.23
2019-01-27T10:00:20.435Z,31.10
2019-01-27T10:03:05.937Z,45.30
2019-01-27T10:05:51.468Z,42.67
2019-01-27T10:08:50.521Z,34.77
2019-01-27T10:11:31.176Z,47.53
2019-01-27T10:14:15.542Z,41.10
2019-01-27T10:17:03.724Z,26.83
2019-01-27T10:19:59.506Z,46.70
2019-01-27T10:22:36.952Z,45.07
2019-01-27T10:25:32.288Z,43.53
2019-01-27T10:28:23.028Z,39.87
2019-01-27T10:31:00.709Z,43.10
2019-01-27T10:33:59.910Z,40.78
2019-01-27T10:36:40.772Z,38.10
2019-01-27T10:39:34.200Z,37.13
2019-01-27T10:42:25.252Z,37.00
2019-01-27T10:45:20.780Z,36.93
2019-01-27T10:48:06.381Z,40.03
2019-01-27T10:50:53.268Z,27.33
2019-01-27T10:53:52.410Z,37.17
2019-01-27T10:56:38.132Z,29.07
2019-01-27T10:59:17.131Z,38.73
2019-01-27T11:02:06.681Z,32.57
2019-01-27T11:04:49.879Z,32.50
2019-01-27T11:07:29.432Z,33.37
2019-01-27T11:10:25.187Z,25.83
2019-01-27T11:13:27.024Z,32.80
2019-01-27T11:16:19.827Z,30.27
2019-01-27T11:18:53.282Z,31.00
2019-01-27T11:21:30.766Z,24.73
2019-01-27T11:24:20.543Z,33.53
2019-01-27T11:27:16.197Z,24.77
2019-01-27T11:30:05.872Z,21.63
2019-01-27T11:32:43.696Z,29.37
2019-01-27T11:35:30.628Z,23.10
2019-01-27T11:38:16.251Z,22.03
2019-01-27T11:41:02.107Z,20.93
2019-01-27T11:43:47.368Z,23.07
2019-01-27T11:46:27.224Z,14.07
2019-01-27T11:48:59.967Z,19.30
2019-01-27T11:51:47.032Z,17.70
2019-01-27T11:54:14.339Z,19.93
2019-01-27T11:56:41.672Z,15.33
2019-01-27T11:59:08.922Z,18.83
2019-01-27T12:01:36.409Z,19.90
2019-01-27T12:04:04.223Z,16.63
2019-01-27T12:06:31.726Z,14.73
2019-01-27T12:08:58.948Z,16.23
2019-01-27T12:11:26.407Z,14.47
2019-01-27T12:13:53.628Z,10.77
2019-01-27T12:16:20.884Z,14.67
2019-01-27T12:18:49.793Z,13.77
2019-01-27T12:21:17.147Z,12.70
2019-01-27T12:23:44.571Z,11.87
2019-01-27T12:26:11.896Z,13.30
2019-01-27T12:28:39.331Z,13.93
2019-01-27T12:31:06.656Z,11.90
2019-01-27T12:33:33.990Z,14.03
2019-01-27T12:36:01.348Z,13.73
2019-01-27T12:38:28.704Z,13.13
2019-01-27T12:40:56.086Z,11.63
2019-01-27T12:43:23.408Z,13.33
2019-01-27T12:45:50.614Z,11.13
2019-01-27T12:48:18.328Z,12.97
2019-01-27T12:50:45.672Z,15.03
2019-01-27T12:53:13.184Z,13.87
2019-01-27T12:55:40.528Z,12.70
2019-01-27T12:58:07.894Z,13.20
2019-01-27T13:00:38.771Z,13.13
2019-01-27T13:03:06.211Z,14.90
2019-01-27T13:05:33.431Z,16.93
2019-01-27T13:08:00.899Z,13.67
2019-01-27T13:10:28.208Z,12.53
2019-01-27T13:12:55.532Z,15.10
2019-01-27T13:15:22.883Z,11.00
2019-01-27T13:17:50.207Z,12.67
2019-01-27T13:20:17.553Z,14.20
2019-01-27T13:22:44.862Z,13.27
2019-01-27T13:25:13.616Z,13.67
2019-01-27T13:27:41.232Z,15.37
2019-01-27T13:30:15.160Z,13.63
2019-01-27T13:32:42.458Z,14.13
2019-01-27T13:35:09.913Z,13.00
2019-01-27T13:37:37.278Z,12.27
2019-01-27T13:40:07.794Z,10.70
2019-01-27T13:42:35.082Z,11.73
2019-01-27T13:45:02.587Z,12.97
2019-01-27T13:47:29.939Z,11.90
2019-01-27T13:49:57.183Z,13.80
2019-01-27T13:52:24.547Z,12.40
2019-01-27T13:54:51.869Z,12.97
2019-01-27T13:57:19.224Z,11.97
2019-01-27T13:59:46.592Z,12.67
2019-01-27T14:02:13.951Z,11.87
2019-01-27T14:04:48.309Z,11.53
2019-01-27T14:07:10.384Z,12.70
2019-01-27T14:09:37.838Z,10.80
2019-01-27T14:12:05.159Z,11.73
2019-01-27T14:14:32.482Z,11.50
2019-01-27T14:16:59.739Z,10.90
2019-01-27T14:19:27.194Z,9.90
2019-01-27T14:21:54.507Z,12.07
2019-01-27T14:24:21.855Z,13.40
2019-01-27T14:26:49.128Z,12.13
2019-01-27T14:29:16.342Z,10.70
2019-01-27T14:31:43.708Z,14.10
2019-01-27T14:34:11.020Z,11.90
2019-01-27T14:36:38.339Z,13.27
2019-01-27T14:39:07.409Z,10.83
2019-01-27T14:41:34.726Z,11.97
2019-01-27T14:44:01.985Z,11.43
2019-01-27T14:46:29.314Z,9.63
2019-01-27T14:48:56.462Z,11.20
2019-01-27T14:51:23.747Z,12.23
2019-01-27T14:53:51.059Z,13.37
2019-01-27T14:56:18.463Z,10.63
2019-01-27T14:58:45.808Z,10.97
2019-01-27T15:01:13.065Z,11.30
2019-01-27T15:03:40.392Z,11.97
2019-01-27T15:06:07.839Z,13.50
2019-01-27T15:08:35.079Z,12.70
2019-01-27T15:11:02.527Z,11.83
2019-01-27T15:13:29.955Z,15.53
2019-01-27T15:15:57.400Z,13.23
2019-01-27T15:18:24.964Z,10.70
2019-01-27T15:20:56.785Z,12.73
2019-01-27T15:23:24.151Z,8.67
2019-01-27T15:25:51.459Z,10.53
2019-01-27T15:28:18.702Z,11.77
2019-01-27T15:30:45.946Z,11.73
2019-01-27T15:33:13.199Z,12.03
2019-01-27T15:35:40.409Z,13.13
2019-01-27T15:38:07.852Z,13.17
2019-01-27T15:40:35.103Z,11.90
2019-01-27T15:43:02.626Z,12.40
2019-01-27T15:45:30.063Z,13.10
2019-01-27T15:47:57.372Z,14.30
2019-01-27T15:50:29.119Z,13.03
2019-01-27T15:52:56.419Z,14.97
2019-01-27T15:55:23.856Z,11.43
2019-01-27T15:57:51.176Z,13.30
2019-01-27T16:00:21.110Z,13.20
2019-01-27T16:02:48.526Z,13.30
2019-01-27T16:05:17.257Z,13.57
2019-01-27T16:07:44.581Z,13.17
2019-01-27T16:10:13.310Z,10.67
2019-01-27T16:12:40.608Z,13.33
2019-01-27T16:15:10.392Z,12.50
2019-01-27T16:17:37.703Z,14.20
2019-01-27T16:20:05.978Z,11.77
2019-01-27T16:22:33.327Z,13.47
2019-01-27T16:25:00.682Z,12.67
2019-01-27T16:27:28.040Z,15.63
2019-01-27T16:30:02.096Z,13.97
2019-01-27T16:32:40.353Z,12.47
2019-01-27T16:35:12.968Z,12.33
2019-01-27T16:37:40.571Z,17.30
2019-01-27T16:40:10.852Z,15.70
2019-01-27T16:42:38.240Z,15.80
2019-01-27T16:45:07.764Z,16.13
2019-01-27T16:47:35.116Z,13.03
2019-01-27T16:50:03.099Z,18.37
2019-01-27T16:52:30.588Z,14.10
2019-01-27T16:54:57.900Z,18.70
2019-01-27T16:57:25.204Z,17.70
2019-01-27T16:59:52.557Z,15.47
2019-01-27T17:02:19.774Z,16.43
2019-01-27T17:04:48.373Z,15.63
2019-01-27T17:07:15.668Z,15.10
2019-01-27T17:09:42.976Z,15.03
2019-01-27T17:12:10.680Z,18.27
2019-01-27T17:14:38.169Z,18.93
2019-01-27T17:17:05.500Z,16.90
2019-01-27T17:19:32.845Z,18.17
2019-01-27T17:22:00.063Z,17.60
2019-01-27T17:24:28.259Z,18.93
2019-01-27T17:26:55.673Z,19.77
2019-01-27T17:29:23.037Z,19.17
2019-01-27T17:31:50.464Z,18.07
2019-01-27T17:34:17.797Z,20.53
2019-01-27T17:36:45.108Z,22.13
2019-01-27T17:39:12.473Z,18.93
2019-01-27T17:41:39.797Z,23.30
2019-01-27T17:44:07.047Z,18.10
2019-01-27T17:46:34.307Z,19.67
2019-01-27T17:49:01.645Z,19.33
2019-01-27T17:51:29.265Z,18.70
2019-01-27T17:53:58.875Z,20.30
2019-01-27T17:56:26.087Z,21.43
2019-01-27T17:59:18.675Z,18.13
2019-01-27T18:02:03.992Z,22.20
2019-01-27T18:04:45.241Z,23.50
2019-01-27T18:07:19.990Z,21.80
2019-01-27T18:10:05.625Z,20.40
2019-01-27T18:12:46.974Z,22.40
2019-01-27T18:15:14.326Z,23.43
2019-01-27T18:17:41.638Z,22.87
2019-01-27T18:20:12.004Z,25.93
2019-01-27T18:22:39.403Z,20.73
2019-01-27T18:25:08.137Z,19.23
2019-01-27T18:27:35.480Z,19.83
2019-01-27T18:30:05.625Z,21.63
2019-01-27T18:32:32.970Z,22.60
2019-01-27T18:35:00.347Z,21.83
2019-01-27T18:37:27.628Z,25.00
2019-01-27T18:39:54.887Z,22.70
2019-01-27T18:42:22.245Z,25.97
2019-01-27T18:44:49.620Z,17.47
2019-01-27T18:47:16.985Z,27.50
2019-01-27T18:49:44.373Z,24.73
2019-01-27T18:52:11.686Z,21.63
2019-01-27T18:55:01.242Z,21.70
2019-01-27T18:57:34.819Z,25.00
2019-01-27T19:00:25.313Z,24.43
2019-01-27T19:03:12.371Z,23.93
2019-01-27T19:05:59.684Z,19.23
2019-01-27T19:08:43.896Z,23.23
2019-01-27T19:11:37.544Z,20.43
2019-01-27T19:14:12.709Z,23.43
2019-01-27T19:16:51.079Z,19.13
2019-01-27T19:19:29.654Z,21.10
2019-01-27T19:22:10.791Z,23.43
2019-01-27T19:24:49.273Z,20.80
2019-01-27T19:27:34.880Z,23.57
2019-01-27T19:30:21.836Z,30.40
2019-01-27T19:33:05.582Z,24.40
2019-01-27T19:35:55.480Z,23.97
2019-01-27T19:38:44.493Z,21.10
2019-01-27T19:41:29.163Z,23.63
2019-01-27T19:44:12.312Z,21.93
2019-01-27T19:46:48.849Z,22.10
2019-01-27T19:49:34.639Z,23.13
2019-01-27T19:52:30.714Z,25.53
2019-01-27T19:55:13.467Z,22.13
2019-01-27T19:57:58.919Z,22.43
2019-01-27T20:01:01.168Z,20.97
2019-01-27T20:04:03.100Z,24.03
2019-01-27T20:06:52.660Z,22.00
2019-01-27T20:09:30.840Z,23.87
2019-01-27T20:12:09.024Z,23.93
2019-01-27T20:15:04.828Z,22.70
2019-01-27T20:17:40.632Z,21.03
2019-01-27T20:20:28.485Z,21.33
2019-01-27T20:23:11.408Z,25.33
2019-01-27T20:25:56.907Z,23.10
2019-01-27T20:28:56.036Z,22.53
2019-01-27T20:31:41.451Z,20.60
2019-01-27T20:34:27.472Z,21.37
2019-01-27T20:37:20.322Z,23.37
2019-01-27T20:40:05.711Z,25.40
2019-01-27T20:42:52.728Z,22.27
2019-01-27T20:45:35.899Z,21.70
2019-01-27T20:48:25.650Z,19.97
2019-01-27T20:51:05.912Z,24.97
2019-01-27T20:53:53.732Z,21.97
2019-01-27T20:56:43.508Z,20.93
2019-01-27T20:59:42.596Z,22.90
2019-01-27T21:02:17.734Z,21.47
2019-01-27T21:05:00.420Z,21.53
2019-01-27T21:07:53.065Z,21.53
2019-01-27T21:10:57.931Z,20.07
2019-01-27T21:13:47.856Z,22.00
2019-01-27T21:16:31.268Z,21.23
2019-01-27T21:19:12.383Z,22.87
2019-01-27T21:21:39.608Z,19.97
2019-01-27T21:24:06.956Z,20.97
2019-01-27T21:26:34.343Z,20.13
2019-01-27T21:29:01.586Z,21.27
2019-01-27T21:31:29.319Z,21.53
2019-01-27T21:33:56.599Z,21.13
2019-01-27T21:36:24.163Z,20.33
2019-01-27T21:38:51.403Z,21.43
2019-01-27T21:41:20.816Z,19.73
2019-01-27T21:43:49.384Z,20.20
2019-01-27T21:46:17.781Z,20.80
2019-01-27T21:48:45.470Z,20.03
2019-01-27T21:51:16.072Z,21.23
2019-01-27T21:53:43.994Z,21.53
2019-01-27T21:56:11.653Z,22.60
2019-01-27T21:58:38.980Z,20.07
2019-01-27T22:01:06.824Z,20.50
2019-01-27T22:03:34.175Z,19.50
2019-01-27T22:06:01.643Z,18.73
2019-01-27T22:08:29.100Z,19.00
2019-01-27T22:10:56.827Z,18.93
2019-01-27T22:13:24.175Z,21.40
2019-01-27T22:15:51.391Z,18.87
2019-01-27T22:18:18.649Z,21.83
2019-01-27T22:20:45.979Z,19.60
2019-01-27T22:23:13.291Z,19.93
2019-01-27T22:25:40.536Z,19.77
2019-01-27T22:28:07.883Z,17.37
2019-01-27T22:30:35.129Z,19.13
2019-01-27T22:33:02.756Z,18.47
2019-01-27T22:35:30.067Z,19.70
2019-01-27T22:37:57.418Z,18.80
2019-01-27T22:40:24.884Z,20.90
2019-01-27T22:42:52.343Z,19.40
2019-01-27T22:45:19.639Z,19.97
2019-01-27T22:47:47.132Z,20.27
2019-01-27T22:50:15.982Z,22.60
2019-01-27T22:52:43.194Z,19.53
2019-01-27T22:55:10.770Z,21.77
2019-01-27T22:57:37.977Z,21.53
2019-01-27T23:00:16.159Z,19.60
2019-01-27T23:02:43.644Z,21.67
2019-01-27T23:05:10.953Z,20.10
2019-01-27T23:07:38.287Z,21.13
2019-01-27T23:10:05.915Z,23.93
2019-01-27T23:12:33.431Z,24.23
2019-01-27T23:15:00.702Z,18.97
2019-01-27T23:17:28.033Z,22.17
2019-01-27T23:19:55.395Z,21.20
2019-01-27T23:22:22.826Z,17.83
2019-01-27T23:24:50.067Z,23.03
2019-01-27T23:27:17.406Z,25.07
2019-01-27T23:29:44.644Z,23.13
2019-01-27T23:32:12.001Z,24.33
2019-01-27T23:34:39.199Z,21.80
2019-01-27T23:37:06.444Z,21.50
2019-01-27T23:39:33.814Z,21.90
2019-01-27T23:42:01.248Z,21.73
2019-01-27T23:44:28.591Z,21.73
2019-01-27T23:46:55.936Z,21.33
2019-01-27T23:49:23.182Z,19.90
2019-01-27T23:51:50.406Z,19.47
2019-01-27T23:54:17.666Z,20.30
2019-01-27T23:56:44.897Z,22.00
2019-01-27T23:59:12.097Z,18.53
